createdAt,value
2023-05-04T00:00:48.569Z,96836.28
2023-05-04T00:03:16.934Z,96832.69
2023-05-04T00:05:45.264Z,96830.00
2023-05-04T00:08:13.714Z,96818.19
2023-05-04T00:10:43.298Z,96817.94
2023-05-04T00:13:11.883Z,96816.66
2023-05-04T00:15:40.168Z,96816.63
2023-05-04T00:18:08.617Z,96822.06
2023-05-04T00:20:36.925Z,96809.34
2023-05-04T00:23:06.069Z,96814.44
2023-05-04T00:25:34.518Z,96807.97
2023-05-04T00:28:04.176Z,96806.69
2023-05-04T00:30:40.836Z,96813.41
2023-05-04T00:33:09.213Z,96813.16
2023-05-04T00:35:37.774Z,96809.91
2023-05-04T00:38:06.025Z,96799.97
2023-05-04T00:40:35.196Z,96804.97
2023-05-04T00:43:04.838Z,96804.03
2023-05-04T00:45:33.541Z,96805.75
2023-05-04T00:48:01.999Z,96803.91
2023-05-04T00:50:30.542Z,96809.00
2023-05-04T00:53:00.292Z,96809.84
2023-05-04T00:55:28.584Z,96802.00
2023-05-04T00:57:57.236Z,96806.63
2023-05-04T01:00:27.290Z,96801.56
2023-05-04T01:02:55.670Z,96800.91
2023-05-04T01:05:25.017Z,96809.00
2023-05-04T01:07:58.073Z,96807.59
2023-05-04T01:10:30.447Z,96806.63
2023-05-04T01:13:03.103Z,96805.69
2023-05-04T01:15:33.304Z,96803.47
2023-05-04T01:18:01.939Z,96810.69
2023-05-04T01:20:30.515Z,96812.13
2023-05-04T01:23:00.353Z,96813.16
2023-05-04T01:25:31.556Z,96809.91
2023-05-04T01:28:04.122Z,96803.81
2023-05-04T01:30:37.484Z,96802.75
2023-05-04T01:33:06.083Z,96800.84
2023-05-04T01:35:34.668Z,96811.09
2023-05-04T01:38:04.754Z,96802.16
2023-05-04T01:40:33.309Z,96807.88
2023-05-04T01:43:01.633Z,96798.00
2023-05-04T01:45:30.008Z,96799.97
2023-05-04T01:47:58.336Z,96801.72
2023-05-04T01:50:26.790Z,96798.19
2023-05-04T01:52:55.133Z,96796.53
2023-05-04T01:55:24.729Z,96800.88
2023-05-04T01:57:53.020Z,96794.97
2023-05-04T02:00:21.718Z,96793.91
2023-05-04T02:02:50.167Z,96795.91
2023-05-04T02:05:18.532Z,96791.88
2023-05-04T02:07:46.802Z,96796.22
2023-05-04T02:10:15.153Z,96796.38
2023-05-04T02:12:44.813Z,96796.72
2023-05-04T02:15:13.158Z,96792.72
2023-05-04T02:17:41.595Z,96790.84
2023-05-04T02:20:11.219Z,96791.34
2023-05-04T02:22:39.583Z,96796.75
2023-05-04T02:25:08.809Z,96799.47
2023-05-04T02:27:37.076Z,96794.63
2023-05-04T02:30:08.143Z,96796.13
2023-05-04T02:32:36.641Z,96797.13
2023-05-04T02:35:05.199Z,96798.31
2023-05-04T02:37:33.538Z,96792.97
2023-05-04T02:40:01.937Z,96798.66
2023-05-04T02:42:30.201Z,96797.84
2023-05-04T02:44:58.451Z,96798.38
2023-05-04T02:47:28.062Z,96792.28
2023-05-04T02:49:56.368Z,96794.34
2023-05-04T02:52:24.614Z,96790.75
2023-05-04T02:54:53.331Z,96791.97
2023-05-04T02:57:21.750Z,96800.78
2023-05-04T02:59:50.016Z,96790.16
2023-05-04T03:02:18.296Z,96796.72
2023-05-04T03:04:47.870Z,96797.47
2023-05-04T03:07:16.136Z,96802.63
2023-05-04T03:09:46.772Z,96795.31
2023-05-04T03:12:15.823Z,96799.00
2023-05-04T03:14:44.129Z,96801.75
2023-05-04T03:17:12.398Z,96800.44
2023-05-04T03:19:40.757Z,96796.81
2023-05-04T03:22:10.359Z,96789.53
2023-05-04T03:24:39.779Z,96790.44
2023-05-04T03:27:08.026Z,96792.75
2023-05-04T03:29:36.447Z,96793.31
2023-05-04T03:32:04.850Z,96792.97
2023-05-04T03:34:33.155Z,96792.03
2023-05-04T03:37:01.392Z,96795.06
2023-05-04T03:39:31.224Z,96790.63
2023-05-04T03:41:59.473Z,96787.66
2023-05-04T03:44:27.719Z,96787.00
2023-05-04T03:46:55.986Z,96790.28
2023-05-04T03:49:24.246Z,96790.91
2023-05-04T03:51:52.541Z,96785.72
2023-05-04T03:54:20.812Z,96782.56
2023-05-04T03:56:50.461Z,96789.81
2023-05-04T03:59:18.719Z,96782.66
2023-05-04T04:01:47.056Z,96785.25
2023-05-04T04:04:15.301Z,96780.44
2023-05-04T04:06:43.665Z,96775.69
2023-05-04T04:09:11.967Z,96791.63
2023-05-04T04:11:40.245Z,96782.56
2023-05-04T04:14:09.952Z,96772.97
2023-05-04T04:16:38.341Z,96773.28
2023-05-04T04:19:07.945Z,96770.41
2023-05-04T04:21:36.190Z,96774.72
2023-05-04T04:24:04.714Z,96768.47
2023-05-04T04:26:34.090Z,96776.44
2023-05-04T04:29:02.334Z,96779.31
2023-05-04T04:31:31.964Z,96773.06
2023-05-04T04:34:00.854Z,96774.72
2023-05-04T04:36:29.523Z,96773.03
2023-05-04T04:38:57.832Z,96765.78
2023-05-04T04:41:26.068Z,96771.81
2023-05-04T04:43:54.337Z,96770.94
2023-05-04T04:46:22.567Z,96768.72
2023-05-04T04:48:53.508Z,96769.97
2023-05-04T04:51:21.930Z,96786.44
2023-05-04T04:53:51.318Z,96786.75
2023-05-04T04:56:19.919Z,96781.44
2023-05-04T04:58:48.612Z,96784.47
2023-05-04T05:01:18.090Z,96787.75
2023-05-04T05:03:46.961Z,96782.66
2023-05-04T05:06:16.668Z,96789.19
2023-05-04T05:08:45.387Z,96797.59
2023-05-04T05:11:13.668Z,96803.22
2023-05-04T05:13:41.937Z,96801.25
2023-05-04T05:16:10.299Z,96808.38
2023-05-04T05:18:38.588Z,96814.06
2023-05-04T05:21:07.712Z,96812.19
2023-05-04T05:23:37.346Z,96814.53
2023-05-04T05:26:05.654Z,96815.59
2023-05-04T05:28:34.005Z,96816.00
2023-05-04T05:31:02.420Z,96814.94
2023-05-04T05:33:30.729Z,96808.78
2023-05-04T05:35:59.005Z,96815.28
2023-05-04T05:38:27.459Z,96805.31
2023-05-04T05:40:57.109Z,96806.19
2023-05-04T05:43:25.371Z,96804.78
2023-05-04T05:45:54.148Z,96808.97
2023-05-04T05:48:22.435Z,96812.28
2023-05-04T05:50:50.780Z,96806.69
2023-05-04T05:53:19.044Z,96794.91
2023-05-04T05:55:47.475Z,96800.00
2023-05-04T05:58:17.098Z,96786.94
2023-05-04T06:00:45.381Z,96798.16
2023-05-04T06:03:14.421Z,96795.59
2023-05-04T06:05:42.834Z,96797.63
2023-05-04T06:08:11.117Z,96798.88
2023-05-04T06:10:39.597Z,96803.56
2023-05-04T06:13:07.933Z,96788.50
2023-05-04T06:15:37.633Z,96788.53
2023-05-04T06:18:06.026Z,96792.09
2023-05-04T06:20:34.390Z,96790.28
2023-05-04T06:23:02.793Z,96791.31
2023-05-04T06:25:31.307Z,96791.06
2023-05-04T06:27:59.616Z,96793.56
2023-05-04T06:30:27.949Z,96785.34
2023-05-04T06:32:57.631Z,96785.69
2023-05-04T06:35:26.183Z,96788.44
2023-05-04T06:37:54.467Z,96782.75
2023-05-04T06:40:22.712Z,96779.81
2023-05-04T06:42:51.147Z,96780.66
2023-05-04T06:45:19.474Z,96782.72
2023-05-04T06:47:47.801Z,96779.78
2023-05-04T06:50:17.618Z,96786.25
2023-05-04T06:52:46.451Z,96779.97
2023-05-04T06:55:14.982Z,96791.03
2023-05-04T06:57:43.226Z,96793.72
2023-05-04T07:00:12.624Z,96787.50
2023-05-04T07:02:40.986Z,96783.75
2023-05-04T07:05:09.817Z,96784.84
2023-05-04T07:07:39.609Z,96778.84
2023-05-04T07:10:08.650Z,96781.41
2023-05-04T07:12:37.652Z,96779.91
2023-05-04T07:15:07.542Z,96787.88
2023-05-04T07:17:36.752Z,96783.78
2023-05-04T07:20:06.576Z,96781.69
2023-05-04T07:22:35.304Z,96781.72
2023-05-04T07:25:05.585Z,96776.78
2023-05-04T07:27:35.045Z,96774.50
2023-05-04T07:30:04.386Z,96762.13
2023-05-04T07:32:32.856Z,96770.09
2023-05-04T07:35:01.114Z,96771.16
2023-05-04T07:37:29.427Z,96771.53
2023-05-04T07:39:57.677Z,96768.66
2023-05-04T07:42:28.025Z,96759.34
2023-05-04T07:44:56.380Z,96767.16
2023-05-04T07:47:24.808Z,96766.00
2023-05-04T07:49:53.038Z,96755.69
2023-05-04T07:52:21.264Z,96768.25
2023-05-04T07:54:53.222Z,96752.19
2023-05-04T07:57:21.877Z,96765.59
2023-05-04T07:59:55.049Z,96769.81
2023-05-04T08:02:23.773Z,96762.38
2023-05-04T08:04:52.139Z,96754.91
2023-05-04T08:07:22.516Z,96764.00
2023-05-04T08:09:52.322Z,96762.88
2023-05-04T08:12:20.636Z,96755.84
2023-05-04T08:14:49.146Z,96750.94
2023-05-04T08:17:18.809Z,96768.69
2023-05-04T08:19:47.231Z,96768.50
2023-05-04T08:22:15.469Z,96758.25
2023-05-04T08:24:43.710Z,96772.91
2023-05-04T08:27:13.824Z,96763.50
2023-05-04T08:29:42.099Z,96762.75
2023-05-04T08:32:10.436Z,96760.09
2023-05-04T08:34:40.043Z,96760.16
2023-05-04T08:37:08.309Z,96763.13
2023-05-04T08:39:39.377Z,96756.63
2023-05-04T08:42:08.872Z,96752.13
2023-05-04T08:44:37.108Z,96751.34
2023-05-04T08:47:05.854Z,96752.06
2023-05-04T08:49:34.134Z,96753.06
2023-05-04T08:52:09.413Z,96749.41
2023-05-04T08:54:39.742Z,96753.44
2023-05-04T08:57:08.246Z,96749.50
2023-05-04T08:59:37.473Z,96759.13
2023-05-04T09:02:06.094Z,96748.38
2023-05-04T09:04:34.441Z,96745.91
2023-05-04T09:07:04.046Z,96751.72
2023-05-04T09:09:32.560Z,96747.09
2023-05-04T09:12:00.791Z,96742.75
2023-05-04T09:14:33.599Z,96743.38
2023-05-04T09:17:02.152Z,96756.47
2023-05-04T09:19:34.653Z,96755.38
2023-05-04T09:22:15.609Z,96756.50
2023-05-04T09:24:44.196Z,96751.78
2023-05-04T09:27:13.365Z,96744.00
2023-05-04T09:29:42.537Z,96740.34
2023-05-04T09:32:15.403Z,96750.56
2023-05-04T09:34:50.652Z,96743.47
2023-05-04T09:37:22.222Z,96737.59
2023-05-04T09:39:55.139Z,96727.31
2023-05-04T09:42:24.073Z,96732.81
2023-05-04T09:45:06.374Z,96728.59
2023-05-04T09:47:38.411Z,96728.84
2023-05-04T09:50:19.819Z,96728.13
2023-05-04T09:52:51.344Z,96733.28
2023-05-04T09:55:19.829Z,96734.44
2023-05-04T09:57:49.203Z,96730.59
2023-05-04T10:00:18.732Z,96726.19
2023-05-04T10:02:48.101Z,96721.34
2023-05-04T10:05:18.137Z,96711.81
2023-05-04T10:07:47.123Z,96708.31
2023-05-04T10:10:16.894Z,96707.19
2023-05-04T10:12:45.969Z,96704.56
2023-05-04T10:15:15.966Z,96699.63
2023-05-04T10:18:08.858Z,96706.06
2023-05-04T10:21:02.875Z,96696.00
2023-05-04T10:24:05.681Z,96701.53
2023-05-04T10:26:43.206Z,96694.06
2023-05-04T10:31:47.289Z,96694.31
2023-05-04T10:34:25.900Z,96691.03
2023-05-04T10:36:54.188Z,96695.50
2023-05-04T10:39:24.479Z,96696.94
2023-05-04T10:42:04.792Z,96677.78
2023-05-04T10:44:34.425Z,96693.75
2023-05-04T10:47:05.301Z,96684.81
2023-05-04T10:49:34.010Z,96690.34
2023-05-04T10:52:09.410Z,96682.63
2023-05-04T10:54:38.160Z,96674.16
2023-05-04T10:57:09.068Z,96669.81
2023-05-04T10:59:37.824Z,96674.78
2023-05-04T11:02:07.559Z,96671.69
2023-05-04T11:04:36.585Z,96666.50
2023-05-04T11:07:06.886Z,96674.00
2023-05-04T11:09:39.451Z,96666.88
2023-05-04T11:12:11.467Z,96660.13
2023-05-04T11:14:43.359Z,96662.50
2023-05-04T11:19:50.917Z,96661.25
2023-05-04T11:22:19.464Z,96654.16
2023-05-04T11:24:49.155Z,96660.88
2023-05-04T11:27:26.209Z,96653.34
2023-05-04T11:29:58.318Z,96648.19
2023-05-04T11:32:36.825Z,96647.34
2023-05-04T11:35:06.639Z,96640.47
2023-05-04T11:37:40.296Z,96634.22
2023-05-04T11:40:13.285Z,96635.88
2023-05-04T11:42:43.572Z,96631.47
2023-05-04T11:45:15.587Z,96625.03
2023-05-04T11:47:44.846Z,96627.63
2023-05-04T11:50:14.505Z,96621.03
2023-05-04T11:52:43.476Z,96613.81
2023-05-04T11:55:12.702Z,96616.00
2023-05-04T11:57:41.016Z,96608.56
2023-05-04T12:00:12.351Z,96600.13
2023-05-04T12:02:40.860Z,96599.31
2023-05-04T12:05:13.837Z,96593.50
2023-05-04T12:07:42.364Z,96593.28
2023-05-04T12:10:11.094Z,96585.25
2023-05-04T12:12:39.349Z,96581.63
2023-05-04T12:15:08.972Z,96585.72
2023-05-04T12:17:45.198Z,96572.56
2023-05-04T12:20:23.829Z,96576.59
2023-05-04T12:22:52.142Z,96576.09
2023-05-04T12:25:20.716Z,96579.16
2023-05-04T12:27:49.167Z,96576.53
2023-05-04T12:30:18.448Z,96573.91
2023-05-04T12:32:49.112Z,96567.84
2023-05-04T12:35:17.352Z,96559.16
2023-05-04T12:37:45.750Z,96559.66
2023-05-04T12:40:27.842Z,96557.81
2023-05-04T12:42:56.793Z,96563.28
2023-05-04T12:45:25.084Z,96557.84
2023-05-04T12:47:54.793Z,96559.34
2023-05-04T12:50:23.263Z,96553.19
2023-05-04T12:52:51.542Z,96556.88
2023-05-04T12:55:19.828Z,96561.06
2023-05-04T12:57:48.143Z,96552.66
2023-05-04T13:00:16.856Z,96547.38
2023-05-04T13:02:45.237Z,96547.72
2023-05-04T13:05:15.998Z,96542.28
2023-05-04T13:07:44.314Z,96543.06
2023-05-04T13:10:12.623Z,96544.00
2023-05-04T13:12:40.950Z,96532.47
2023-05-04T13:15:10.724Z,96538.66
2023-05-04T13:17:39.210Z,96526.97
2023-05-04T13:20:08.940Z,96530.19
2023-05-04T13:22:38.769Z,96518.97
2023-05-04T13:25:08.606Z,96530.19
2023-05-04T13:27:37.471Z,96521.91
2023-05-04T13:30:07.495Z,96527.41
2023-05-04T13:32:36.290Z,96519.44
2023-05-04T13:35:05.370Z,96519.59
2023-05-04T13:37:33.946Z,96517.38
2023-05-04T13:40:03.747Z,96521.34
2023-05-04T13:42:33.941Z,96514.69
2023-05-04T13:45:03.583Z,96508.81
2023-05-04T13:47:32.472Z,96500.81
2023-05-04T13:50:02.123Z,96513.59
2023-05-04T13:52:31.743Z,96506.41
2023-05-04T13:55:00.163Z,96497.00
2023-05-04T13:57:29.849Z,96500.69
2023-05-04T14:00:07.264Z,96485.41
2023-05-04T14:02:36.657Z,96477.19
2023-05-04T14:05:05.940Z,96471.56
2023-05-04T14:07:35.327Z,96485.44
2023-05-04T14:10:03.831Z,96481.69
2023-05-04T14:12:33.577Z,96477.63
2023-05-04T14:15:01.891Z,96486.19
2023-05-04T14:17:30.152Z,96466.09
2023-05-04T14:19:58.996Z,96470.00
2023-05-04T14:22:27.278Z,96469.00
2023-05-04T14:24:55.678Z,96458.19
2023-05-04T14:27:23.989Z,96467.72
2023-05-04T14:29:54.449Z,96459.03
2023-05-04T14:32:22.691Z,96467.97
2023-05-04T14:34:51.098Z,96461.47
2023-05-04T14:37:19.326Z,96461.47
2023-05-04T14:39:47.595Z,96460.06
2023-05-04T14:42:15.836Z,96457.53
2023-05-04T14:44:44.108Z,96463.13
2023-05-04T14:47:13.692Z,96460.38
2023-05-04T14:49:42.928Z,96460.94
2023-05-04T14:52:11.576Z,96454.66
2023-05-04T14:54:39.780Z,96454.13
2023-05-04T14:57:09.169Z,96459.28
2023-05-04T14:59:38.626Z,96458.19
2023-05-04T15:02:08.058Z,96453.03
2023-05-04T15:04:37.717Z,96465.28
2023-05-04T15:07:06.032Z,96452.22
2023-05-04T15:09:34.398Z,96455.66
2023-05-04T15:12:03.603Z,96450.22
2023-05-04T15:14:31.915Z,96451.97
2023-05-04T15:17:00.156Z,96435.06
2023-05-04T15:19:28.446Z,96440.50
2023-05-04T15:21:58.017Z,96439.63
2023-05-04T15:24:26.251Z,96454.94
2023-05-04T15:26:54.577Z,96439.06
2023-05-04T15:29:22.902Z,96455.16
2023-05-04T15:31:53.383Z,96441.34
2023-05-04T15:34:21.741Z,96442.06
2023-05-04T15:36:49.977Z,96448.59
2023-05-04T15:39:19.633Z,96442.50
2023-05-04T15:41:47.863Z,96435.81
2023-05-04T15:44:16.202Z,96433.59
2023-05-04T15:46:46.534Z,96428.75
2023-05-04T15:49:14.677Z,96430.38
2023-05-04T15:51:42.938Z,96434.13
2023-05-04T15:54:11.330Z,96434.19
2023-05-04T15:56:41.100Z,96423.63
2023-05-04T15:59:09.354Z,96432.50
2023-05-04T16:01:39.954Z,96423.22
2023-05-04T16:04:08.365Z,96426.31
2023-05-04T16:06:36.744Z,96425.25
2023-05-04T16:09:05.140Z,96415.59
2023-05-04T16:11:33.647Z,96424.66
2023-05-04T16:14:03.283Z,96423.09
2023-05-04T16:16:31.585Z,96424.41
2023-05-04T16:18:59.923Z,96416.47
2023-05-04T16:21:28.164Z,96420.69
2023-05-04T16:23:56.425Z,96418.19
2023-05-04T16:26:24.770Z,96415.47
2023-05-04T16:28:53.075Z,96414.69
2023-05-04T16:31:22.779Z,96413.06
2023-05-04T16:33:51.083Z,96408.00
2023-05-04T16:36:19.326Z,96405.88
2023-05-04T16:38:48.981Z,96402.50
2023-05-04T16:41:19.078Z,96407.16
2023-05-04T16:43:48.968Z,96397.19
2023-05-04T16:46:17.495Z,96400.84
2023-05-04T16:48:47.139Z,96398.09
2023-05-04T16:51:15.395Z,96406.09
2023-05-04T16:53:43.665Z,96401.56
2023-05-04T16:56:18.097Z,96395.38
2023-05-04T16:58:46.513Z,96400.31
2023-05-04T17:01:14.786Z,96402.47
2023-05-04T17:03:43.071Z,96408.78
2023-05-04T17:06:13.249Z,96398.59
2023-05-04T17:08:41.529Z,96399.63
2023-05-04T17:11:09.798Z,96403.88
2023-05-04T17:13:38.188Z,96389.97
2023-05-04T17:16:07.283Z,96405.84
2023-05-04T17:18:35.580Z,96396.19
2023-05-04T17:21:03.817Z,96396.38
2023-05-04T17:23:33.676Z,96391.72
2023-05-04T17:26:01.960Z,96393.63
2023-05-04T17:28:30.362Z,96392.28
2023-05-04T17:30:58.636Z,96404.44
2023-05-04T17:33:26.913Z,96399.19
2023-05-04T17:35:55.198Z,96394.34
2023-05-04T17:38:23.468Z,96394.50
2023-05-04T17:40:53.082Z,96392.59
2023-05-04T17:43:21.453Z,96385.28
2023-05-04T17:45:49.677Z,96388.34
2023-05-04T17:48:18.044Z,96394.16
2023-05-04T17:50:46.568Z,96401.81
2023-05-04T17:53:14.789Z,96406.25
2023-05-04T17:55:43.204Z,96411.53
2023-05-04T17:58:12.802Z,96412.91
2023-05-04T18:00:41.352Z,96421.00
2023-05-04T18:03:09.833Z,96418.50
2023-05-04T18:05:38.228Z,96416.25
2023-05-04T18:08:06.713Z,96418.25
2023-05-04T18:10:35.989Z,96422.00
2023-05-04T18:13:04.266Z,96408.53
2023-05-04T18:15:33.938Z,96412.59
2023-05-04T18:18:02.538Z,96409.41
2023-05-04T18:20:30.841Z,96415.31
2023-05-04T18:22:59.100Z,96417.41
2023-05-04T18:25:27.497Z,96417.94
2023-05-04T18:27:56.083Z,96423.53
2023-05-04T18:30:24.378Z,96431.81
2023-05-04T18:32:54.008Z,96426.81
2023-05-04T18:35:22.499Z,96435.47
2023-05-04T18:37:50.905Z,96430.72
2023-05-04T18:40:19.285Z,96438.69
2023-05-04T18:42:47.508Z,96442.28
2023-05-04T18:45:15.804Z,96438.44
2023-05-04T18:47:44.096Z,96440.09
2023-05-04T18:50:13.964Z,96444.25
2023-05-04T18:52:42.194Z,96446.53
2023-05-04T18:55:11.027Z,96453.78
2023-05-04T18:57:39.274Z,96457.09
2023-05-04T19:00:09.489Z,96451.34
2023-05-04T19:02:38.143Z,96463.78
2023-05-04T19:05:06.872Z,96456.59
2023-05-04T19:07:37.004Z,96463.56
2023-05-04T19:10:06.632Z,96463.66
2023-05-04T19:12:35.068Z,96472.84
2023-05-04T19:15:03.293Z,96468.13
2023-05-04T19:17:31.751Z,96464.38
2023-05-04T19:20:00.092Z,96472.47
2023-05-04T19:22:28.395Z,96476.72
2023-05-04T19:24:58.057Z,96467.09
2023-05-04T19:27:26.367Z,96470.22
2023-05-04T19:29:56.102Z,96477.63
2023-05-04T19:32:25.166Z,96473.53
2023-05-04T19:34:53.800Z,96480.22
2023-05-04T19:37:22.190Z,96474.47
2023-05-04T19:39:50.481Z,96474.56
2023-05-04T19:42:20.133Z,96474.03
2023-05-04T19:44:48.384Z,96480.41
2023-05-04T19:47:16.918Z,96475.06
2023-05-04T19:49:47.461Z,96484.28
2023-05-04T19:52:15.546Z,96471.53
2023-05-04T19:54:45.037Z,96477.84
2023-05-04T19:57:13.273Z,96467.88
2023-05-04T19:59:44.743Z,96482.41
2023-05-04T20:02:14.614Z,96480.06
2023-05-04T20:04:42.960Z,96476.09
2023-05-04T20:07:11.210Z,96479.16
2023-05-04T20:09:39.518Z,96477.63
2023-05-04T20:12:08.192Z,96470.34
2023-05-04T20:14:36.793Z,96481.81
2023-05-04T20:17:06.778Z,96476.06
2023-05-04T20:19:35.043Z,96481.31
2023-05-04T20:22:03.369Z,96471.31
2023-05-04T20:24:31.605Z,96479.41
2023-05-04T20:26:59.858Z,96473.94
2023-05-04T20:29:28.162Z,96480.06
2023-05-04T20:31:56.420Z,96475.47
2023-05-04T20:34:26.096Z,96475.63
2023-05-04T20:36:54.496Z,96467.94
2023-05-04T20:39:22.761Z,96476.22
2023-05-04T20:41:51.113Z,96474.25
2023-05-04T20:44:19.421Z,96465.13
2023-05-04T20:46:47.750Z,96468.44
2023-05-04T20:49:15.982Z,96463.25
2023-05-04T20:51:46.121Z,96460.13
2023-05-04T20:54:14.354Z,96464.47
2023-05-04T20:56:42.585Z,96459.34
2023-05-04T20:59:10.946Z,96457.53
2023-05-04T21:01:39.213Z,96459.03
2023-05-04T21:04:07.812Z,96455.34
2023-05-04T21:06:36.047Z,96451.09
2023-05-04T21:09:05.798Z,96447.22
2023-05-04T21:11:34.529Z,96450.25
2023-05-04T21:14:03.261Z,96456.44
2023-05-04T21:16:31.776Z,96448.56
2023-05-04T21:19:00.152Z,96450.72
2023-05-04T21:21:28.507Z,96457.94
2023-05-04T21:23:56.813Z,96460.09
2023-05-04T21:26:26.767Z,96461.47
2023-05-04T21:28:55.168Z,96455.84
2023-05-04T21:31:23.473Z,96454.31
2023-05-04T21:33:52.245Z,96447.91
2023-05-04T21:36:21.045Z,96441.28
2023-05-04T21:38:49.455Z,96440.34
2023-05-04T21:41:18.000Z,96434.25
2023-05-04T21:43:47.639Z,96435.25
2023-05-04T21:46:16.054Z,96436.63
2023-05-04T21:48:44.538Z,96446.34
2023-05-04T21:51:12.996Z,96448.88
2023-05-04T21:53:44.097Z,96438.91
2023-05-04T21:56:12.807Z,96439.81
2023-05-04T21:58:41.175Z,96447.56
2023-05-04T22:01:12.323Z,96445.09
2023-05-04T22:03:41.010Z,96444.91
2023-05-04T22:06:09.485Z,96446.97
2023-05-04T22:08:37.907Z,96448.34
2023-05-04T22:11:06.387Z,96443.81
2023-05-04T22:13:34.705Z,96447.00
2023-05-04T22:16:03.083Z,96446.97
2023-05-04T22:18:32.744Z,96440.19
2023-05-04T22:21:01.300Z,96443.84
2023-05-04T22:23:29.671Z,96439.34
2023-05-04T22:25:58.002Z,96449.13
2023-05-04T22:28:26.415Z,96431.53
2023-05-04T22:30:54.782Z,96441.22
2023-05-04T22:33:23.166Z,96439.13
2023-05-04T22:35:52.810Z,96438.72
2023-05-04T22:38:21.093Z,96441.63
2023-05-04T22:40:50.123Z,96445.34
2023-05-04T22:43:18.397Z,96449.50
2023-05-04T22:45:46.717Z,96450.81
2023-05-04T22:48:15.126Z,96454.31
2023-05-04T22:50:43.560Z,96446.72
2023-05-04T22:53:14.545Z,96447.13
2023-05-04T22:55:42.895Z,96445.72
2023-05-04T22:58:11.303Z,96453.13
2023-05-04T23:00:39.635Z,96449.38
2023-05-04T23:03:08.077Z,96450.22
2023-05-04T23:05:36.583Z,96452.69
2023-05-04T23:08:05.164Z,96456.44
2023-05-04T23:10:35.683Z,96461.56
2023-05-04T23:13:03.982Z,96457.03
2023-05-04T23:15:32.786Z,96456.81
2023-05-04T23:18:01.301Z,96452.50
2023-05-04T23:20:29.816Z,96451.25
2023-05-04T23:22:58.202Z,96453.72
2023-05-04T23:25:26.710Z,96457.44
2023-05-04T23:27:56.386Z,96450.22
2023-05-04T23:30:24.715Z,96451.66
2023-05-04T23:32:53.050Z,96444.25
2023-05-04T23:35:21.530Z,96449.03
2023-05-04T23:37:49.864Z,96444.06
2023-05-04T23:40:18.385Z,96436.59
2023-05-04T23:42:49.856Z,96433.41
2023-05-04T23:45:19.578Z,96435.94
2023-05-04T23:47:47.844Z,96441.75
2023-05-04T23:50:16.570Z,96432.84
2023-05-04T23:52:44.899Z,96430.00
2023-05-04T23:55:13.675Z,96431.41
2023-05-04T23:57:44.301Z,96435.56
